createdAt,value
2017-12-12T00:02:04.129Z,6.90
2017-12-12T00:04:33.081Z,6.90
2017-12-12T00:07:01.233Z,6.90
2017-12-12T00:09:29.365Z,7.00
2017-12-12T00:11:57.511Z,7.00
2017-12-12T00:14:25.648Z,7.00
2017-12-12T00:16:53.779Z,7.00
2017-12-12T00:19:21.913Z,7.00
2017-12-12T00:21:50.052Z,7.00
2017-12-12T00:24:18.175Z,6.90
2017-12-12T00:26:47.109Z,6.90
2017-12-12T00:29:15.225Z,6.90
2017-12-12T00:31:43.366Z,6.80
2017-12-12T00:34:11.501Z,6.90
2017-12-12T00:36:39.664Z,6.90
2017-12-12T00:39:08.590Z,6.90
2017-12-12T00:41:38.040Z,6.80
2017-12-12T00:44:06.172Z,6.90
2017-12-12T00:46:35.072Z,6.80
2017-12-12T00:49:03.995Z,6.80
2017-12-12T00:51:32.137Z,6.80
2017-12-12T00:54:00.265Z,6.80
2017-12-12T00:56:28.422Z,6.80
2017-12-12T00:58:56.555Z,6.80
2017-12-12T01:01:24.690Z,6.70
2017-12-12T01:03:52.832Z,6.60
2017-12-12T01:06:20.967Z,6.60
2017-12-12T01:08:49.888Z,6.70
2017-12-12T01:11:18.634Z,6.80
2017-12-12T01:13:46.759Z,6.80
2017-12-12T01:16:15.681Z,6.80
2017-12-12T01:18:44.589Z,6.70
2017-12-12T01:21:13.571Z,6.80
2017-12-12T01:23:41.738Z,6.70
2017-12-12T01:26:09.865Z,6.60
2017-12-12T01:28:38.025Z,6.50
2017-12-12T01:31:06.129Z,6.50
2017-12-12T01:33:34.278Z,6.50
2017-12-12T01:36:02.399Z,6.40
2017-12-12T01:38:31.314Z,6.30
2017-12-12T01:40:59.445Z,6.30
2017-12-12T01:43:27.552Z,6.30
2017-12-12T01:45:55.751Z,6.20
2017-12-12T01:48:24.639Z,6.00
2017-12-12T01:50:52.769Z,6.00
2017-12-12T01:53:20.906Z,5.90
2017-12-12T01:55:49.093Z,5.90
2017-12-12T01:58:17.231Z,5.80
2017-12-12T02:00:45.371Z,5.80
2017-12-12T02:03:13.502Z,5.80
2017-12-12T02:05:41.647Z,5.80
2017-12-12T02:08:10.594Z,5.70
2017-12-12T02:10:38.721Z,5.60
2017-12-12T02:13:06.839Z,5.60
2017-12-12T02:15:35.733Z,5.40
2017-12-12T02:18:05.449Z,5.40
2017-12-12T02:20:33.559Z,5.40
2017-12-12T02:23:01.704Z,5.40
2017-12-12T02:25:29.845Z,5.40
2017-12-12T02:27:57.995Z,5.20
2017-12-12T02:30:26.885Z,5.10
2017-12-12T02:32:55.062Z,5.10
2017-12-12T02:35:23.222Z,5.10
2017-12-12T02:37:51.368Z,4.90
2017-12-12T02:40:20.250Z,4.90
2017-12-12T02:42:48.393Z,4.80
2017-12-12T02:45:16.505Z,4.80
2017-12-12T02:47:44.652Z,4.80
2017-12-12T02:50:12.791Z,4.80
2017-12-12T02:52:40.955Z,4.80
2017-12-12T02:55:09.077Z,4.90
2017-12-12T02:57:37.980Z,4.90
2017-12-12T03:00:06.885Z,4.90
2017-12-12T03:02:35.789Z,4.90
2017-12-12T03:05:04.763Z,4.90
2017-12-12T03:07:32.882Z,4.90
2017-12-12T03:10:01.791Z,4.80
2017-12-12T03:12:30.687Z,4.80
2017-12-12T03:15:00.188Z,4.60
2017-12-12T03:17:28.312Z,4.60
2017-12-12T03:19:56.468Z,4.60
2017-12-12T03:22:24.600Z,4.60
2017-12-12T03:24:52.713Z,4.60
2017-12-12T03:27:20.839Z,4.60
2017-12-12T03:29:49.751Z,4.60
2017-12-12T03:32:17.908Z,4.60
2017-12-12T03:34:46.033Z,4.60
2017-12-12T03:37:14.182Z,4.60
2017-12-12T03:39:42.329Z,4.60
2017-12-12T03:42:10.495Z,4.60
2017-12-12T03:44:38.620Z,4.70
2017-12-12T03:47:07.524Z,4.60
2017-12-12T03:49:35.667Z,4.60
2017-12-12T03:52:03.796Z,4.60
2017-12-12T03:54:31.937Z,4.40
2017-12-12T03:57:00.082Z,4.00
2017-12-12T03:59:28.219Z,3.60
2017-12-12T04:01:56.353Z,3.20
2017-12-12T04:04:24.492Z,3.00
2017-12-12T04:06:52.653Z,3.00
2017-12-12T04:09:21.560Z,2.90
2017-12-12T04:11:49.687Z,2.90
2017-12-12T04:14:17.829Z,3.00
2017-12-12T04:16:45.970Z,3.00
2017-12-12T04:19:14.134Z,3.00
2017-12-12T04:21:42.257Z,3.10
2017-12-12T04:24:10.386Z,3.00
2017-12-12T04:26:38.520Z,3.10
2017-12-12T04:29:06.645Z,3.20
2017-12-12T04:31:34.802Z,3.20
2017-12-12T04:34:02.930Z,3.30
2017-12-12T04:36:31.081Z,3.30
2017-12-12T04:38:59.216Z,3.40
2017-12-12T04:41:27.361Z,3.50
2017-12-12T04:43:56.241Z,3.50
2017-12-12T04:46:24.399Z,3.50
2017-12-12T04:48:52.520Z,3.50
2017-12-12T04:51:20.686Z,3.60
2017-12-12T04:53:48.810Z,3.50
2017-12-12T04:56:17.715Z,3.60
2017-12-12T04:58:46.620Z,3.50
2017-12-12T05:01:15.522Z,3.50
2017-12-12T05:03:44.424Z,3.50
2017-12-12T05:06:13.337Z,3.60
2017-12-12T05:08:41.482Z,3.60
2017-12-12T05:11:10.402Z,3.60
2017-12-12T05:13:38.518Z,3.50
2017-12-12T05:16:06.633Z,3.60
2017-12-12T05:18:34.779Z,3.70
2017-12-12T05:21:04.909Z,3.60
2017-12-12T05:23:33.059Z,3.70
2017-12-12T05:26:01.180Z,3.70
2017-12-12T05:28:30.107Z,3.80
2017-12-12T05:30:58.211Z,3.80
2017-12-12T05:33:26.357Z,3.80
2017-12-12T05:35:55.269Z,3.80
2017-12-12T05:38:24.165Z,3.80
2017-12-12T05:40:53.057Z,3.80
2017-12-12T05:43:21.978Z,3.90
2017-12-12T05:45:50.114Z,3.90
2017-12-12T05:48:18.237Z,4.00
2017-12-12T05:50:47.138Z,4.10
2017-12-12T05:53:16.035Z,4.00
2017-12-12T05:55:44.175Z,4.00
2017-12-12T05:58:12.313Z,4.00
2017-12-12T06:00:41.227Z,4.00
2017-12-12T06:03:10.121Z,3.90
2017-12-12T06:05:39.025Z,3.90
2017-12-12T06:08:07.951Z,3.90
2017-12-12T06:10:36.079Z,3.90
2017-12-12T06:13:04.268Z,3.90
2017-12-12T06:15:32.429Z,3.90
2017-12-12T06:18:00.555Z,3.80
2017-12-12T06:20:28.704Z,3.90
2017-12-12T06:22:56.939Z,3.90
2017-12-12T06:25:25.869Z,3.90
2017-12-12T06:27:54.014Z,3.90
2017-12-12T06:30:22.195Z,4.00
2017-12-12T06:32:50.304Z,4.00
2017-12-12T06:35:19.206Z,4.00
2017-12-12T06:37:48.108Z,3.90
2017-12-12T06:40:17.010Z,3.90
2017-12-12T06:42:45.146Z,3.90
2017-12-12T06:45:13.300Z,3.90
2017-12-12T06:47:42.218Z,4.00
2017-12-12T06:50:10.357Z,4.00
2017-12-12T06:52:38.529Z,4.10
2017-12-12T06:55:06.656Z,4.00
2017-12-12T06:57:36.741Z,4.20
2017-12-12T07:00:04.869Z,4.10
2017-12-12T07:02:33.776Z,4.20
2017-12-12T07:05:02.707Z,4.20
2017-12-12T07:07:30.840Z,4.10
2017-12-12T07:09:58.968Z,4.10
2017-12-12T07:12:27.122Z,4.00
2017-12-12T07:14:55.987Z,4.00
2017-12-12T07:17:24.123Z,3.90
2017-12-12T07:19:53.022Z,3.90
2017-12-12T07:22:21.955Z,3.90
2017-12-12T07:24:50.845Z,3.90
2017-12-12T07:27:18.990Z,3.90
2017-12-12T07:29:47.137Z,3.90
2017-12-12T07:32:15.268Z,3.90
2017-12-12T07:34:43.422Z,3.80
2017-12-12T07:37:11.556Z,3.90
2017-12-12T07:39:40.470Z,4.00
2017-12-12T07:42:09.394Z,4.00
2017-12-12T07:44:37.540Z,4.00
2017-12-12T07:47:05.684Z,4.10
2017-12-12T07:49:33.836Z,4.00
2017-12-12T07:52:02.720Z,4.10
2017-12-12T07:54:30.872Z,4.00
2017-12-12T07:56:59.001Z,4.10
2017-12-12T07:59:27.957Z,4.20
2017-12-12T08:01:56.094Z,4.10
2017-12-12T08:04:24.249Z,4.10
2017-12-12T08:06:52.394Z,4.20
2017-12-12T08:09:20.529Z,4.30
2017-12-12T08:11:48.663Z,4.30
2017-12-12T08:14:16.819Z,4.40
2017-12-12T08:16:44.938Z,4.40
2017-12-12T08:19:13.076Z,4.40
2017-12-12T08:21:41.204Z,4.30
2017-12-12T08:24:09.352Z,4.30
2017-12-12T08:26:38.252Z,4.30
2017-12-12T08:29:06.377Z,4.20
2017-12-12T08:31:35.124Z,4.30
2017-12-12T08:34:03.249Z,4.20
2017-12-12T08:36:32.171Z,4.20
2017-12-12T08:39:00.306Z,4.20
2017-12-12T08:41:28.454Z,4.10
2017-12-12T08:43:56.586Z,4.10
2017-12-12T08:46:24.729Z,4.10
2017-12-12T08:48:52.853Z,4.00
2017-12-12T08:51:20.994Z,4.10
2017-12-12T08:53:49.146Z,4.10
2017-12-12T08:56:18.043Z,4.20
2017-12-12T08:58:47.012Z,4.30
2017-12-12T09:01:15.711Z,4.30
2017-12-12T09:03:43.866Z,4.40
2017-12-12T09:06:12.011Z,4.50
2017-12-12T09:08:40.145Z,4.60
2017-12-12T09:11:08.286Z,4.70
2017-12-12T09:13:37.202Z,4.80
2017-12-12T09:16:06.101Z,4.80
2017-12-12T09:18:35.013Z,4.80
2017-12-12T09:21:03.906Z,4.80
2017-12-12T09:23:33.746Z,4.90
2017-12-12T09:26:02.631Z,4.80
2017-12-12T09:28:30.765Z,4.80
2017-12-12T09:30:58.945Z,4.80
2017-12-12T09:33:27.082Z,4.80
2017-12-12T09:35:55.204Z,4.90
2017-12-12T09:38:23.360Z,4.90
2017-12-12T09:40:52.705Z,4.90
2017-12-12T09:43:21.609Z,4.90
2017-12-12T09:45:49.741Z,4.90
2017-12-12T09:48:17.904Z,5.00
2017-12-12T09:50:46.040Z,4.90
2017-12-12T09:53:14.962Z,4.90
2017-12-12T09:55:43.094Z,4.80
2017-12-12T09:58:11.218Z,4.90
2017-12-12T10:00:40.127Z,5.00
2017-12-12T10:03:09.047Z,5.10
2017-12-12T10:05:37.837Z,5.10
2017-12-12T10:08:06.818Z,5.10
2017-12-12T10:10:34.949Z,5.00
2017-12-12T10:13:03.109Z,5.10
2017-12-12T10:15:31.998Z,4.90
2017-12-12T10:18:00.926Z,5.00
2017-12-12T10:20:29.089Z,5.00
2017-12-12T10:22:58.013Z,4.90
2017-12-12T10:25:26.913Z,4.90
2017-12-12T10:27:55.805Z,4.90
2017-12-12T10:30:24.696Z,5.00
2017-12-12T10:32:52.859Z,5.00
2017-12-12T10:35:20.978Z,5.10
2017-12-12T10:37:49.606Z,5.00
2017-12-12T10:40:17.734Z,5.00
2017-12-12T10:42:45.870Z,4.90
2017-12-12T10:45:14.659Z,4.80
2017-12-12T10:47:43.643Z,4.70
2017-12-12T10:50:11.831Z,4.70
2017-12-12T10:52:39.934Z,4.70
2017-12-12T10:55:08.849Z,4.90
2017-12-12T10:57:36.978Z,4.80
2017-12-12T11:00:05.917Z,4.90
2017-12-12T11:02:34.131Z,4.90
2017-12-12T11:05:03.020Z,5.00
2017-12-12T11:07:31.918Z,5.20
2017-12-12T11:10:00.834Z,5.20
2017-12-12T11:12:29.726Z,5.30
2017-12-12T11:14:57.876Z,5.20
2017-12-12T11:17:26.899Z,5.30
2017-12-12T11:19:55.030Z,5.20
2017-12-12T11:22:23.185Z,5.20
2017-12-12T11:24:51.316Z,5.20
2017-12-12T11:27:19.449Z,5.40
2017-12-12T11:29:47.578Z,5.40
2017-12-12T11:32:15.730Z,5.30
2017-12-12T11:34:45.332Z,5.30
2017-12-12T11:37:13.458Z,5.30
2017-12-12T11:39:41.602Z,5.40
2017-12-12T11:42:09.737Z,5.40
2017-12-12T11:44:37.877Z,5.20
2017-12-12T11:47:06.117Z,5.20
2017-12-12T11:49:34.249Z,5.00
2017-12-12T11:52:02.410Z,4.90
2017-12-12T11:54:30.545Z,4.80
2017-12-12T11:56:59.444Z,4.90
2017-12-12T11:59:28.356Z,4.90
2017-12-12T12:01:57.244Z,4.60
2017-12-12T12:04:25.392Z,4.60
2017-12-12T12:06:53.533Z,4.70
2017-12-12T12:09:22.131Z,4.70
2017-12-12T12:11:51.010Z,4.80
2017-12-12T12:14:19.159Z,4.80
2017-12-12T12:16:48.008Z,4.80
2017-12-12T12:19:16.926Z,4.90
2017-12-12T12:21:47.162Z,4.90
2017-12-12T12:24:15.301Z,4.90
2017-12-12T12:26:43.428Z,5.00
2017-12-12T12:29:12.330Z,5.00
2017-12-12T12:31:41.957Z,5.00
2017-12-12T12:34:10.856Z,5.10
2017-12-12T12:36:38.994Z,5.00
2017-12-12T12:39:08.142Z,5.20
2017-12-12T12:41:36.275Z,5.30
2017-12-12T12:44:04.459Z,5.30
2017-12-12T12:46:32.661Z,5.40
2017-12-12T12:49:00.774Z,5.40
2017-12-12T12:51:28.923Z,5.40
2017-12-12T12:53:57.057Z,5.40
2017-12-12T12:56:26.205Z,5.40
2017-12-12T12:58:54.354Z,5.30
2017-12-12T13:01:23.262Z,5.40
2017-12-12T13:03:52.202Z,5.40
2017-12-12T13:06:20.434Z,5.30
2017-12-12T13:08:48.582Z,5.40
2017-12-12T13:11:16.733Z,5.30
2017-12-12T13:13:45.666Z,5.30
2017-12-12T13:16:14.550Z,5.20
2017-12-12T13:18:42.684Z,5.20
2017-12-12T13:21:10.835Z,5.20
2017-12-12T13:23:39.898Z,5.10
2017-12-12T13:26:08.051Z,5.00
2017-12-12T13:28:36.192Z,5.00
2017-12-12T13:31:05.117Z,4.80
2017-12-12T13:33:33.889Z,4.80
2017-12-12T13:36:03.605Z,4.60
2017-12-12T13:38:31.764Z,4.60
2017-12-12T13:40:59.886Z,4.60
2017-12-12T13:43:28.814Z,4.50
2017-12-12T13:45:59.536Z,4.50
2017-12-12T13:48:28.436Z,4.60
2017-12-12T13:50:56.578Z,4.60
2017-12-12T13:53:24.709Z,4.70
2017-12-12T13:55:52.872Z,4.80
2017-12-12T13:58:21.022Z,4.80
2017-12-12T14:00:49.205Z,4.80
2017-12-12T14:03:17.344Z,4.70
2017-12-12T14:05:46.060Z,4.70
2017-12-12T14:08:14.967Z,4.70
2017-12-12T14:10:43.125Z,4.70
2017-12-12T14:13:11.304Z,4.80
2017-12-12T14:15:39.447Z,4.70
2017-12-12T14:18:07.595Z,4.70
2017-12-12T14:20:35.747Z,4.60
2017-12-12T14:23:03.875Z,4.70
2017-12-12T14:25:32.817Z,4.70
2017-12-12T14:28:00.938Z,4.70
2017-12-12T14:30:29.062Z,4.80
2017-12-12T14:32:57.214Z,4.70
2017-12-12T14:35:25.365Z,4.80
2017-12-12T14:37:53.541Z,4.80
2017-12-12T14:40:21.666Z,4.90
2017-12-12T14:42:49.814Z,4.90
2017-12-12T14:45:17.952Z,4.80
2017-12-12T14:47:46.098Z,4.90
2017-12-12T14:50:14.229Z,4.80
2017-12-12T14:52:43.136Z,4.80
2017-12-12T14:55:12.051Z,4.80
2017-12-12T14:57:40.973Z,4.80
2017-12-12T15:00:09.093Z,4.70
2017-12-12T15:02:37.266Z,4.70
2017-12-12T15:05:05.432Z,4.80
2017-12-12T15:07:33.570Z,4.80
2017-12-12T15:10:01.704Z,4.60
2017-12-12T15:12:29.869Z,4.60
2017-12-12T15:14:58.772Z,4.40
2017-12-12T15:17:27.670Z,4.50
2017-12-12T15:19:56.588Z,4.60
2017-12-12T15:22:25.487Z,4.60
2017-12-12T15:24:53.650Z,4.70
2017-12-12T15:27:21.798Z,4.50
2017-12-12T15:29:49.951Z,4.50
2017-12-12T15:32:18.096Z,4.60
2017-12-12T15:34:46.267Z,4.70
2017-12-12T15:37:14.386Z,4.60
2017-12-12T15:39:43.302Z,4.70
2017-12-12T15:42:12.250Z,4.60
2017-12-12T15:44:40.393Z,4.60
2017-12-12T15:47:09.294Z,4.40
2017-12-12T15:49:38.229Z,4.50
2017-12-12T15:52:06.368Z,4.50
2017-12-12T15:54:35.283Z,4.60
2017-12-12T15:57:03.428Z,4.60
2017-12-12T15:59:32.500Z,4.70
2017-12-12T16:02:00.661Z,4.30
2017-12-12T16:04:28.810Z,4.30
2017-12-12T16:06:56.970Z,4.40
2017-12-12T16:09:25.142Z,4.40
2017-12-12T16:11:54.069Z,4.50
2017-12-12T16:14:22.232Z,4.50
2017-12-12T16:16:52.290Z,4.50
2017-12-12T16:19:20.432Z,4.50
2017-12-12T16:21:50.082Z,4.20
2017-12-12T16:24:18.203Z,4.20
2017-12-12T16:26:46.361Z,4.20
2017-12-12T16:29:14.492Z,4.00
2017-12-12T16:31:42.666Z,4.00
2017-12-12T16:34:10.817Z,3.90
2017-12-12T16:36:38.949Z,3.90
2017-12-12T16:39:07.089Z,3.90
2017-12-12T16:41:35.251Z,3.90
2017-12-12T16:44:04.709Z,3.80
2017-12-12T16:46:33.629Z,3.90
2017-12-12T16:49:01.802Z,3.90
2017-12-12T16:51:29.940Z,4.10
2017-12-12T16:53:58.869Z,3.80
2017-12-12T16:56:27.042Z,3.80
2017-12-12T16:58:55.989Z,3.90
2017-12-12T17:01:24.121Z,3.90
2017-12-12T17:03:53.078Z,4.20
2017-12-12T17:06:21.210Z,4.20
2017-12-12T17:08:50.157Z,4.20
2017-12-12T17:11:18.292Z,4.20
2017-12-12T17:13:47.226Z,3.80
2017-12-12T17:16:15.368Z,3.70
2017-12-12T17:18:43.495Z,3.90
2017-12-12T17:21:11.723Z,3.70
2017-12-12T17:23:39.879Z,3.80
2017-12-12T17:26:08.047Z,3.80
2017-12-12T17:28:36.984Z,3.60
2017-12-12T17:31:05.197Z,3.60
2017-12-12T17:33:33.334Z,3.50
2017-12-12T17:36:01.488Z,3.50
2017-12-12T17:38:30.411Z,3.50
2017-12-12T17:40:58.584Z,3.50
2017-12-12T17:43:27.492Z,3.30
2017-12-12T17:45:56.549Z,3.20
2017-12-12T17:48:24.771Z,3.20
2017-12-12T17:50:52.926Z,3.10
2017-12-12T17:53:33.973Z,3.50
2017-12-12T17:56:02.898Z,4.00
2017-12-12T17:58:31.067Z,4.00
2017-12-12T18:00:59.226Z,4.10
2017-12-12T18:03:27.389Z,4.20
2017-12-12T18:05:55.631Z,4.10
2017-12-12T18:08:23.755Z,4.20
2017-12-12T18:10:51.923Z,4.20
2017-12-12T18:13:20.065Z,4.30
2017-12-12T18:15:49.023Z,4.30
2017-12-12T18:18:17.196Z,4.30
2017-12-12T18:20:45.355Z,4.20
2017-12-12T18:23:14.299Z,3.80
2017-12-12T18:25:42.478Z,3.80
2017-12-12T18:28:10.623Z,3.70
2017-12-12T18:30:39.521Z,3.60
2017-12-12T18:33:08.462Z,3.60
2017-12-12T18:35:36.624Z,3.60
2017-12-12T18:38:04.780Z,3.50
2017-12-12T18:40:32.929Z,3.50
2017-12-12T18:43:01.091Z,3.40
2017-12-12T18:45:30.015Z,3.40
2017-12-12T18:47:58.183Z,3.30
2017-12-12T18:50:27.526Z,3.40
2017-12-12T18:52:55.664Z,3.30
2017-12-12T18:55:28.417Z,3.50
2017-12-12T18:57:56.604Z,3.50
2017-12-12T19:00:24.747Z,3.50
2017-12-12T19:02:53.689Z,3.50
2017-12-12T19:05:22.419Z,3.50
2017-12-12T19:07:50.594Z,3.50
2017-12-12T19:10:18.750Z,3.30
2017-12-12T19:12:46.967Z,3.20
2017-12-12T19:15:15.125Z,3.30
2017-12-12T19:17:43.299Z,3.30
2017-12-12T19:20:11.455Z,3.40
2017-12-12T19:22:39.604Z,3.40
2017-12-12T19:25:07.775Z,3.30
2017-12-12T19:27:35.935Z,3.50
2017-12-12T19:30:04.891Z,3.50
2017-12-12T19:32:32.996Z,3.50
2017-12-12T19:35:01.144Z,3.70
2017-12-12T19:37:29.273Z,3.70
2017-12-12T19:39:58.237Z,3.70
2017-12-12T19:42:26.364Z,3.70
2017-12-12T19:44:54.524Z,3.60
2017-12-12T19:47:22.671Z,3.50
2017-12-12T19:49:50.859Z,3.60
2017-12-12T19:52:19.014Z,3.50
2017-12-12T19:54:47.910Z,3.40
2017-12-12T19:57:16.073Z,3.40
2017-12-12T19:59:44.240Z,3.30
2017-12-12T20:02:12.437Z,3.30
2017-12-12T20:04:40.605Z,3.10
2017-12-12T20:07:08.761Z,3.00
2017-12-12T20:09:37.665Z,2.70
2017-12-12T20:12:06.642Z,2.60
2017-12-12T20:14:34.750Z,2.60
2017-12-12T20:17:03.702Z,2.30
2017-12-12T20:19:31.833Z,2.30
2017-12-12T20:22:00.770Z,2.50
2017-12-12T20:24:28.906Z,2.50
2017-12-12T20:26:57.114Z,2.60
2017-12-12T20:29:27.039Z,2.70
2017-12-12T20:31:55.186Z,2.60
2017-12-12T20:34:23.363Z,2.70
2017-12-12T20:36:51.559Z,2.80
2017-12-12T20:39:19.686Z,2.90
2017-12-12T20:41:48.651Z,2.80
2017-12-12T20:44:16.820Z,2.80
2017-12-12T20:46:44.977Z,2.90
2017-12-12T20:49:13.143Z,2.90
2017-12-12T20:51:42.076Z,3.10
2017-12-12T20:54:10.248Z,3.10
2017-12-12T20:56:39.154Z,3.30
2017-12-12T20:59:08.099Z,3.30
2017-12-12T21:01:36.237Z,3.30
2017-12-12T21:04:05.163Z,3.20
2017-12-12T21:06:33.314Z,3.10
2017-12-12T21:09:01.460Z,3.10
2017-12-12T21:11:29.615Z,3.10
2017-12-12T21:13:57.757Z,3.00
2017-12-12T21:16:25.921Z,3.10
2017-12-12T21:18:54.075Z,3.10
2017-12-12T21:21:22.246Z,3.20
2017-12-12T21:23:51.796Z,3.10
2017-12-12T21:26:19.926Z,3.00
2017-12-12T21:28:48.071Z,3.10
2017-12-12T21:31:17.015Z,3.00
2017-12-12T21:33:45.168Z,3.00
2017-12-12T21:36:14.291Z,3.00
2017-12-12T21:38:42.448Z,2.80
2017-12-12T21:41:10.603Z,2.90
2017-12-12T21:43:39.518Z,2.90
2017-12-12T21:46:07.673Z,2.90
2017-12-12T21:48:35.819Z,2.80
2017-12-12T21:51:03.961Z,2.90
2017-12-12T21:53:32.872Z,2.70
2017-12-12T21:56:01.792Z,2.50
2017-12-12T21:58:30.785Z,2.80
2017-12-12T22:00:59.718Z,2.90
2017-12-12T22:03:27.892Z,2.90
2017-12-12T22:05:56.048Z,2.80
2017-12-12T22:08:24.204Z,2.90
2017-12-12T22:10:53.119Z,2.90
2017-12-12T22:13:21.261Z,2.90
2017-12-12T22:15:49.594Z,3.00
2017-12-12T22:18:17.740Z,3.00
2017-12-12T22:20:46.400Z,3.10
2017-12-12T22:23:15.337Z,3.00
2017-12-12T22:25:43.476Z,3.00
2017-12-12T22:28:11.617Z,3.10
2017-12-12T22:30:39.760Z,3.10
2017-12-12T22:33:08.669Z,2.80
2017-12-12T22:35:37.585Z,3.00
2017-12-12T22:38:07.405Z,3.10
2017-12-12T22:40:36.298Z,3.10
2017-12-12T22:43:04.604Z,3.10
2017-12-12T22:45:33.505Z,3.10
2017-12-12T22:48:03.549Z,2.80
2017-12-12T22:50:31.701Z,2.80
2017-12-12T22:52:59.849Z,2.20
2017-12-12T22:55:28.892Z,2.10
2017-12-12T22:57:57.828Z,2.30
2017-12-12T23:00:27.901Z,2.40
2017-12-12T23:02:56.981Z,2.40
2017-12-12T23:05:25.145Z,2.70
2017-12-12T23:07:53.357Z,2.90
2017-12-12T23:10:22.971Z,2.80
2017-12-12T23:12:51.867Z,2.90
2017-12-12T23:15:20.034Z,2.80
2017-12-12T23:17:49.619Z,3.00
2017-12-12T23:20:17.810Z,3.00
2017-12-12T23:22:45.917Z,3.00
2017-12-12T23:25:14.832Z,3.00
2017-12-12T23:27:43.773Z,3.10
2017-12-12T23:30:11.918Z,3.10
2017-12-12T23:32:41.392Z,2.90
2017-12-12T23:35:09.545Z,2.90
2017-12-12T23:37:37.680Z,2.50
2017-12-12T23:40:05.839Z,2.20
2017-12-12T23:42:33.986Z,2.00
2017-12-12T23:45:02.896Z,2.30
2017-12-12T23:47:31.043Z,2.30
2017-12-12T23:49:59.196Z,2.20
2017-12-12T23:52:27.346Z,2.30
2017-12-12T23:54:56.844Z,2.10
2017-12-12T23:57:24.988Z,2.00
2017-12-12T23:59:53.126Z,2.30
